ADDS METAR Data INFO
IDs: Format: Raw Decoded Include TAF

Data at: 1603 UTC 12 Dec 2017

KWDR 121555Z AUTO 34018G23KT 10SM CLR 11/00 A2990 RMK AO1
KWDR 121535Z AUTO 32016G21KT 10SM CLR 11/00 A2990 RMK AO1
KWDR 121515Z AUTO 31014G18KT 10SM CLR 11/00 A2989 RMK AO1
KWDR 121455Z AUTO 30012G17KT 10SM CLR 10/00 A2988 RMK AO1
KWDR 121435Z AUTO 31010G16KT 10SM CLR 10/00 A2988 RMK AO1
KWDR 121415Z AUTO 30011G14KT 275V335 10SM CLR 09/00 A2987 RMK AO1
KWDR 121355Z AUTO 29008KT 10SM CLR 08/01 A2986 RMK AO1
KWDR 121335Z AUTO 29006KT 10SM CLR 07/01 A2986 RMK AO1
KWDR 121315Z AUTO 28005KT 10SM CLR 06/01 A2986 RMK AO1
KWDR 121255Z AUTO 28007KT 10SM CLR 06/01 A2985 RMK AO1
KWDR 121235Z AUTO 28009KT 10SM CLR 06/02 A2985 RMK AO1
KWDR 121215Z AUTO 28005KT 10SM CLR 05/02 A2985 RMK AO1
KWDR 121155Z AUTO 27007KT 10SM CLR 05/02 A2984 RMK AO1
KWDR 121135Z AUTO 26007KT 10SM CLR 06/02 A2984 RMK AO1
KWDR 121115Z AUTO 27007KT 10SM CLR 05/02 A2984 RMK AO1
KWDR 121055Z AUTO 26005KT 10SM CLR 04/01 A2985 RMK AO1
KWDR 121035Z AUTO 25005KT 10SM CLR 05/01 A2985 RMK AO1
KWDR 121015Z AUTO 25005KT 10SM CLR 04/01 A2985 RMK AO1
KWDR 120955Z AUTO 25004KT 10SM CLR 04/01 A2985 RMK AO1
KWDR 120935Z AUTO 24004KT 10SM CLR 04/01 A2986 RMK AO1
KWDR 120915Z AUTO 24004KT 10SM CLR 05/01 A2987 RMK AO1
KWDR 120855Z AUTO 23005KT 10SM CLR 05/01 A2988 RMK AO1
KWDR 120835Z AUTO 23005KT 10SM CLR 05/01 A2988 RMK AO1
KWDR 120815Z AUTO 23005KT 10SM CLR 05/01 A2989 RMK AO1
KWDR 120755Z AUTO 22004KT 10SM CLR 03/01 A2989 RMK AO1
KWDR 120735Z AUTO 24003KT 10SM CLR 02/00 A2990 RMK AO1
KWDR 120715Z AUTO 26003KT 10SM CLR 03/00 A2991 RMK AO1
KWDR 120655Z AUTO 24003KT 10SM CLR 03/01 A2992 RMK AO1
KWDR 120635Z AUTO 00000KT 10SM CLR 03/00 A2993 RMK AO1
KWDR 120615Z AUTO 23003KT 10SM CLR 05/01 A2994 RMK AO1
KWDR 120555Z AUTO 24003KT 10SM CLR 06/00 A2995 RMK AO1
KWDR 120535Z AUTO 23005KT 10SM CLR 07/01 A2995 RMK AO1
KWDR 120515Z AUTO 25004KT 10SM CLR 07/01 A2996 RMK AO1
KWDR 120455Z AUTO 25005KT 10SM CLR 07/00 A2998 RMK AO1
KWDR 120435Z AUTO 25005KT 10SM CLR 08/00 A2998 RMK AO1
KWDR 120415Z AUTO 24005KT 10SM CLR 08/00 A2998 RMK AO1
KWDR 120355Z AUTO 24006KT 10SM CLR 08/00 A2998 RMK AO1
KWDR 120335Z AUTO 24005KT 10SM CLR 08/00 A2999 RMK AO1
KWDR 120315Z AUTO 25004KT 10SM CLR 08/00 A3000 RMK AO1
KWDR 120255Z AUTO 25003KT 10SM CLR 08/00 A3001 RMK AO1
KWDR 120235Z AUTO 26006KT 10SM CLR 09/00 A3001 RMK AO1
KWDR 120215Z AUTO 26007KT 10SM CLR 09/00 A3001 RMK AO1
KWDR 120155Z AUTO 25004KT 10SM CLR 08/00 A3001 RMK AO1
KWDR 120135Z AUTO 26004KT 10SM CLR 08/00 A3002 RMK AO1
KWDR 120115Z AUTO 24004KT 10SM CLR 08/00 A3002 RMK AO1
KWDR 120055Z AUTO 25003KT 10SM CLR 08/00 A3003 RMK AO1
KWDR 120035Z AUTO 26004KT 10SM CLR 10/00 A3003 RMK AO1
KWDR 120015Z AUTO 24004KT 10SM CLR 08/01 A3003 RMK AO1
KWDR 112355Z AUTO 25003KT 10SM CLR 10/00 A3003 RMK AO1
KWDR 112335Z AUTO 26004KT 10SM CLR 10/00 A3003 RMK AO1
KWDR 112315Z AUTO 26003KT 10SM CLR 11/00 A3004 RMK AO1
KWDR 112255Z AUTO 26003KT 10SM CLR 12/00 A3003 RMK AO1
KWDR 112235Z AUTO 26004KT 10SM CLR 13/00 A3003 RMK AO1
KWDR 112215Z AUTO 00000KT 10SM CLR 14/00 A3004 RMK AO1
KWDR 112155Z AUTO 25005KT 10SM CLR 15/M01 A3005 RMK AO1
KWDR 112135Z AUTO 24005KT 10SM CLR 15/M01 A3005 RMK AO1
KWDR 112115Z AUTO 25007KT 10SM CLR 16/M01 A3005 RMK AO1
KWDR 112055Z AUTO 25006KT 10SM CLR 16/M01 A3005 RMK AO1
KWDR 112035Z AUTO 23004KT 10SM CLR 16/M01 A3005 RMK AO1
KWDR 112015Z AUTO 25006KT 10SM CLR 16/M01 A3006 RMK AO1
KWDR 111955Z AUTO 25006KT 10SM CLR 16/00 A3006 RMK AO1
KWDR 111935Z AUTO 27007KT 235V295 10SM CLR 16/00 A3007 RMK AO1
KWDR 111915Z AUTO 24006KT 10SM CLR 16/00 A3008 RMK AO1
KWDR 111855Z AUTO 24005KT 10SM CLR 15/M01 A3008 RMK AO1
KWDR 111835Z AUTO 26004KT 10SM CLR 15/00 A3010 RMK AO1
KWDR 111815Z AUTO 26005KT 10SM CLR 14/M01 A3010 RMK AO1
KWDR 111755Z AUTO 25005KT 10SM CLR 14/00 A3012 RMK AO1
KWDR 111735Z AUTO 24006KT 10SM CLR 13/M01 A3014 RMK AO1
KWDR 111715Z AUTO 24003KT 10SM CLR 12/00 A3015 RMK AO1
KWDR 111655Z AUTO 25003KT 10SM CLR 12/00 A3017 RMK AO1
KWDR 111635Z AUTO 00000KT 10SM CLR 12/00 A3018 RMK AO1
KWDR 111615Z AUTO 26004KT 10SM CLR 11/00 A3020 RMK AO1
KWDR 111555Z AUTO 22004KT 10SM CLR 10/M01 A3020 RMK AO1
KWDR 111535Z AUTO 27003KT 10SM CLR 10/M01 A3020 RMK AO1
KWDR 111515Z AUTO 27004KT 10SM CLR 09/M01 A3020 RMK AO1
KWDR 111455Z AUTO 27004KT 10SM CLR 08/M01 A3020 RMK AO1
KWDR 111435Z AUTO 30006KT 10SM CLR 07/M01 A3020 RMK AO1
KWDR 111415Z AUTO 30008KT 10SM CLR 06/M01 A3020 RMK AO1
KWDR 111355Z AUTO 30008KT 10SM CLR 05/M01 A3019 RMK AO1
KWDR 111335Z AUTO 30008KT 10SM CLR 05/M01 A3019 RMK AO1
KWDR 111315Z AUTO 30008KT 10SM CLR 03/M02 A3020 RMK AO1
KWDR 111255Z AUTO 30009KT 10SM CLR 02/M02 A3020 RMK AO1
KWDR 111235Z AUTO 28005KT 10SM CLR 01/M02 A3020 RMK AO1
KWDR 111215Z AUTO 28006KT 10SM CLR 01/M02 A3020 RMK AO1
KWDR 111155Z AUTO 29005KT 10SM CLR 01/M02 A3020 RMK AO1
KWDR 111135Z AUTO 27006KT 10SM CLR 01/M02 A3020 RMK AO1
KWDR 111115Z AUTO 27006KT 10SM CLR 01/M02 A3020 RMK AO1
KWDR 111055Z AUTO 26007KT 10SM CLR 01/M02 A3020 RMK AO1
KWDR 111035Z AUTO 25004KT 10SM CLR 01/M02 A3020 RMK AO1
KWDR 111015Z AUTO 25004KT 10SM CLR 01/M02 A3019 RMK AO1
KWDR 110955Z AUTO 26004KT 10SM CLR 01/M02 A3020 RMK AO1
KWDR 110935Z AUTO 25005KT 10SM CLR 01/M02 A3020 RMK AO1
KWDR 110915Z AUTO 27005KT 10SM CLR 01/M02 A3020 RMK AO1
KWDR 110855Z AUTO 26005KT 10SM CLR 01/M02 A3020 RMK AO1
KWDR 110835Z AUTO 26004KT 10SM CLR 01/M02 A3021 RMK AO1
KWDR 110815Z AUTO 25005KT 10SM CLR 01/M02 A3022 RMK AO1
KWDR 110755Z AUTO 27004KT 10SM CLR 02/M02 A3022 RMK AO1
KWDR 110735Z AUTO 28003KT 10SM CLR 01/M02 A3022 RMK AO1
KWDR 110715Z AUTO 28004KT 10SM CLR 01/M02 A3023 RMK AO1
KWDR 110655Z AUTO 28004KT 10SM CLR 01/M03 A3023 RMK AO1
KWDR 110635Z AUTO 27005KT 10SM CLR 01/M02 A3023 RMK AO1
KWDR 110615Z AUTO 27006KT 10SM CLR 01/M02 A3024 RMK AO1
KWDR 110555Z AUTO 27006KT 10SM CLR 01/M03 A3025 RMK AO1
KWDR 110535Z AUTO 26007KT 10SM CLR 01/M03 A3025 RMK AO1
KWDR 110515Z AUTO 26006KT 10SM CLR 01/M03 A3025 RMK AO1
KWDR 110455Z AUTO 25006KT 10SM CLR 01/M03 A3026 RMK AO1
KWDR 110435Z AUTO 26006KT 10SM CLR 02/M03 A3025 RMK AO1
KWDR 110415Z AUTO 27006KT 10SM CLR 01/M03 A3025 RMK AO1